createdAt,value
2023-01-31T02:20:23.994Z,81.73
2023-01-31T02:22:57.312Z,80.94
2023-01-31T02:25:55.490Z,80.18
2023-01-31T02:28:31.449Z,79.82
2023-01-31T02:31:41.135Z,79.90
2023-01-31T02:34:23.834Z,80.16
2023-01-31T02:37:24.754Z,80.32
2023-01-31T02:40:11.562Z,80.62
2023-01-31T02:43:22.698Z,81.39
2023-01-31T02:45:53.071Z,82.33
2023-01-31T02:48:37.217Z,82.52
2023-01-31T02:51:31.497Z,81.62
2023-01-31T02:54:09.405Z,80.66
2023-01-31T02:56:37.175Z,79.89
2023-01-31T02:59:11.391Z,78.96
2023-01-31T03:01:41.550Z,78.55
2023-01-31T03:04:11.441Z,78.50
2023-01-31T03:07:07.135Z,78.53
2023-01-31T03:10:06.659Z,78.80
2023-01-31T03:12:50.484Z,78.47
2023-01-31T03:16:35.077Z,78.99
2023-01-31T03:19:01.939Z,80.14
2023-01-31T03:21:36.959Z,80.95
2023-01-31T03:24:05.731Z,80.96
2023-01-31T03:26:33.493Z,80.66
2023-01-31T03:29:01.241Z,80.22
2023-01-31T03:31:43.691Z,79.99
2023-01-31T03:34:13.667Z,79.94
2023-01-31T03:36:44.612Z,79.78
2023-01-31T03:39:59.920Z,80.38
2023-01-31T03:42:42.498Z,80.45
2023-01-31T03:45:18.663Z,80.41
2023-01-31T03:47:47.866Z,80.60
2023-01-31T03:50:28.932Z,80.87
2023-01-31T03:53:11.348Z,81.73
2023-01-31T03:56:28.466Z,82.77
2023-01-31T03:59:00.859Z,82.73
2023-01-31T04:01:34.882Z,82.59
2023-01-31T04:04:06.189Z,82.38
2023-01-31T04:06:34.159Z,82.61
2023-01-31T04:09:01.572Z,83.19
2023-01-31T04:11:29.074Z,83.94
2023-01-31T04:13:56.429Z,84.31
2023-01-31T04:16:28.907Z,84.90
2023-01-31T04:18:56.158Z,86.03
2023-01-31T04:21:25.787Z,87.11
2023-01-31T04:23:57.932Z,87.79
2023-01-31T04:26:25.883Z,87.60
2023-01-31T04:28:53.049Z,87.82
2023-01-31T04:31:20.231Z,88.05
2023-01-31T04:33:48.184Z,87.96
2023-01-31T04:36:15.332Z,88.10
2023-01-31T04:38:42.396Z,88.26
2023-01-31T04:41:11.151Z,88.66
2023-01-31T04:43:38.507Z,88.78
2023-01-31T04:46:10.681Z,88.63
2023-01-31T04:48:39.867Z,88.05
2023-01-31T04:51:08.898Z,87.65
2023-01-31T04:53:36.346Z,87.02
2023-01-31T04:56:05.513Z,86.91
2023-01-31T04:58:42.805Z,86.41
2023-01-31T05:01:09.977Z,85.63
2023-01-31T05:03:37.205Z,85.31
2023-01-31T05:06:04.869Z,85.62
2023-01-31T05:08:32.808Z,85.77
2023-01-31T05:11:06.447Z,86.46
2023-01-31T05:13:42.810Z,87.23
2023-01-31T05:16:10.815Z,87.70
2023-01-31T05:18:40.075Z,88.01
2023-01-31T05:21:07.632Z,88.33
2023-01-31T05:23:34.800Z,88.18
2023-01-31T05:26:09.443Z,88.40
2023-01-31T05:28:36.965Z,88.21
2023-01-31T05:31:11.273Z,87.70
2023-01-31T05:33:39.165Z,87.11
2023-01-31T05:36:06.927Z,87.20
2023-01-31T05:38:33.891Z,88.00
2023-01-31T05:41:00.811Z,88.93
2023-01-31T05:43:27.849Z,89.61
2023-01-31T05:45:55.126Z,90.14
2023-01-31T05:48:22.457Z,89.90
2023-01-31T05:50:50.572Z,89.57
2023-01-31T05:53:18.600Z,89.79
2023-01-31T05:55:46.472Z,89.98
2023-01-31T05:58:13.637Z,89.76
2023-01-31T06:00:40.796Z,89.75
2023-01-31T06:03:08.266Z,90.08
2023-01-31T06:05:35.681Z,91.31
2023-01-31T06:08:03.161Z,92.27
2023-01-31T06:10:32.000Z,91.98
2023-01-31T06:12:59.872Z,91.44
2023-01-31T06:15:27.151Z,90.52
2023-01-31T06:17:54.735Z,89.44
2023-01-31T06:20:26.367Z,89.44
2023-01-31T06:22:54.133Z,88.98
2023-01-31T06:25:23.258Z,89.08
2023-01-31T06:27:50.479Z,90.02
2023-01-31T06:30:20.444Z,90.57
2023-01-31T06:32:53.481Z,90.81
2023-01-31T06:35:21.868Z,90.46
2023-01-31T06:37:49.540Z,90.88
2023-01-31T06:40:17.084Z,91.17
2023-01-31T06:42:44.224Z,91.54
2023-01-31T06:45:11.477Z,91.07
2023-01-31T06:47:38.423Z,91.04
2023-01-31T06:50:06.393Z,91.75
2023-01-31T06:52:33.676Z,92.27
2023-01-31T06:55:03.455Z,93.42
2023-01-31T06:57:32.625Z,94.33
2023-01-31T06:59:59.707Z,94.63
2023-01-31T07:02:27.471Z,94.07
2023-01-31T07:04:55.703Z,93.73
2023-01-31T07:07:28.352Z,93.22
2023-01-31T07:09:56.409Z,93.32
2023-01-31T11:24:28.245Z,99.29
2023-01-31T11:27:09.776Z,98.56
2023-01-31T11:29:43.126Z,97.64
2023-01-31T11:32:18.378Z,96.79
2023-01-31T11:35:15.375Z,95.45
2023-01-31T11:37:57.084Z,95.11
2023-01-31T11:40:29.984Z,95.07
2023-01-31T11:42:58.831Z,94.89
2023-01-31T11:45:37.355Z,94.47
2023-01-31T11:48:13.401Z,94.27
2023-01-31T11:50:45.582Z,93.08
2023-01-31T11:53:21.064Z,92.89
2023-01-31T11:55:49.190Z,93.11
2023-01-31T11:58:29.673Z,94.05
2023-01-31T12:00:57.722Z,95.05
2023-01-31T12:03:25.908Z,94.75
2023-01-31T12:06:06.661Z,94.17
2023-01-31T12:08:37.812Z,93.49
2023-01-31T12:11:19.706Z,94.45
2023-01-31T12:13:48.396Z,95.57
2023-01-31T12:16:23.803Z,96.45
2023-01-31T12:19:00.305Z,96.09
2023-01-31T12:21:27.037Z,96.27
2023-01-31T12:24:12.898Z,94.92
2023-01-31T12:26:56.040Z,94.76
2023-01-31T12:30:00.478Z,94.95
2023-01-31T12:32:40.134Z,95.27
2023-01-31T12:35:32.110Z,95.71
2023-01-31T12:38:44.989Z,96.53
2023-01-31T12:41:33.326Z,95.87
2023-01-31T12:44:13.118Z,95.23
2023-01-31T12:47:11.456Z,95.30
2023-01-31T12:49:54.923Z,95.19
2023-01-31T12:52:30.806Z,94.95
2023-01-31T12:55:25.589Z,95.51
2023-01-31T12:58:11.381Z,96.79
2023-01-31T13:00:47.416Z,96.65
2023-01-31T13:03:53.132Z,96.64
2023-01-31T13:06:28.777Z,97.21
2023-01-31T13:09:12.793Z,97.48
2023-01-31T13:12:03.260Z,98.19
2023-01-31T13:14:39.687Z,99.21
2023-01-31T13:17:10.842Z,99.90
2023-01-31T13:20:05.598Z,100.00
2023-01-31T13:22:37.452Z,100.00
2023-01-31T13:25:13.091Z,100.00
2023-01-31T13:27:44.208Z,100.00
2023-01-31T13:30:45.388Z,100.00
2023-01-31T13:33:39.608Z,100.00
2023-01-31T13:36:16.996Z,100.00
2023-01-31T13:38:45.485Z,100.00
2023-01-31T13:41:34.242Z,100.00
2023-01-31T13:44:03.086Z,100.00
2023-01-31T13:46:39.328Z,100.00
2023-01-31T13:49:10.704Z,100.00
2023-01-31T13:51:51.616Z,100.00
2023-01-31T13:54:25.520Z,100.00
2023-01-31T13:56:55.139Z,100.00
2023-01-31T13:59:26.165Z,100.00
2023-01-31T14:01:55.138Z,100.00
2023-01-31T14:04:26.722Z,100.00
2023-01-31T14:07:18.134Z,100.00
2023-01-31T14:10:12.599Z,100.00
2023-01-31T14:12:40.897Z,100.00
2023-01-31T14:15:50.067Z,100.00
2023-01-31T14:18:43.063Z,100.00
2023-01-31T14:21:29.736Z,100.00
2023-01-31T14:24:02.025Z,100.00
2023-01-31T14:26:36.543Z,100.00
2023-01-31T14:29:19.196Z,100.00
2023-01-31T14:31:48.264Z,100.00
2023-01-31T14:34:17.598Z,100.00
2023-01-31T14:37:04.096Z,100.00
2023-01-31T14:40:12.278Z,100.00
2023-01-31T14:42:44.035Z,100.00
2023-01-31T14:45:25.392Z,100.00
2023-01-31T14:47:53.811Z,100.00
2023-01-31T14:50:44.996Z,100.00
2023-01-31T14:53:58.205Z,100.00
2023-01-31T14:56:48.725Z,100.00
2023-01-31T14:59:57.531Z,100.00
2023-01-31T15:02:35.781Z,100.00
2023-01-31T15:05:10.176Z,100.00
2023-01-31T15:08:07.085Z,100.00
2023-01-31T15:11:15.004Z,100.00
2023-01-31T15:13:48.493Z,100.00
2023-01-31T15:16:33.704Z,100.00
2023-01-31T15:19:07.984Z,100.00
2023-01-31T15:21:57.103Z,100.00
2023-01-31T15:24:25.263Z,100.00
2023-01-31T15:26:53.987Z,100.00
2023-01-31T15:29:26.728Z,100.00
2023-01-31T15:31:58.483Z,100.00
2023-01-31T15:34:34.586Z,100.00
2023-01-31T15:37:18.109Z,100.00
2023-01-31T15:39:52.208Z,100.00
2023-01-31T15:42:23.031Z,100.00
2023-01-31T15:44:51.825Z,100.00
2023-01-31T15:47:23.646Z,100.00
2023-01-31T15:49:51.857Z,100.00
2023-01-31T15:52:23.176Z,100.00
2023-01-31T15:54:57.831Z,100.00
2023-01-31T15:57:33.097Z,100.00
2023-01-31T16:00:02.056Z,100.00
2023-01-31T16:02:38.093Z,100.00
2023-01-31T16:05:07.276Z,100.00
2023-01-31T16:07:40.611Z,100.00
2023-01-31T16:10:12.383Z,100.00
2023-01-31T16:12:44.875Z,100.00
2023-01-31T20:30:49.257Z,100.00
2023-01-31T20:33:16.719Z,100.00
2023-01-31T20:35:44.019Z,100.00
2023-01-31T20:38:16.804Z,100.00
2023-01-31T20:40:49.666Z,100.00
2023-01-31T20:43:17.919Z,100.00
2023-01-31T20:45:45.278Z,100.00
2023-01-31T20:48:12.594Z,100.00
2023-01-31T20:50:39.960Z,100.00
2023-01-31T20:53:15.979Z,100.00
2023-01-31T20:55:43.088Z,100.00
2023-01-31T20:58:10.256Z,100.00
2023-01-31T21:00:39.059Z,100.00
2023-01-31T21:03:06.008Z,100.00
2023-01-31T21:05:37.975Z,100.00
2023-01-31T21:08:05.731Z,100.00
2023-01-31T21:10:33.087Z,100.00
2023-01-31T21:13:00.881Z,100.00
2023-01-31T21:15:28.791Z,100.00
2023-01-31T21:17:57.026Z,100.00
2023-01-31T21:20:24.348Z,100.00
2023-01-31T21:22:51.589Z,100.00
2023-01-31T21:25:22.101Z,100.00
2023-01-31T21:27:50.434Z,100.00
2023-01-31T21:30:17.637Z,100.00
2023-01-31T21:32:50.024Z,100.00
2023-01-31T21:35:17.509Z,100.00
2023-01-31T21:37:44.566Z,100.00
2023-01-31T21:40:17.285Z,100.00
2023-01-31T21:42:44.759Z,100.00
2023-01-31T21:45:11.958Z,100.00
2023-01-31T21:47:59.027Z,100.00
2023-01-31T21:50:26.424Z,100.00
2023-01-31T21:52:53.407Z,100.00
2023-01-31T21:55:23.449Z,100.00
2023-01-31T21:57:55.546Z,100.00
2023-01-31T22:00:23.263Z,100.00
2023-01-31T22:02:51.734Z,100.00
2023-01-31T22:05:20.315Z,100.00
2023-01-31T22:07:47.318Z,100.00
2023-01-31T22:10:15.905Z,100.00
2023-01-31T22:12:43.163Z,100.00
2023-01-31T22:15:10.150Z,100.00
2023-01-31T22:17:37.600Z,100.00
2023-01-31T22:20:05.127Z,100.00
2023-01-31T22:22:32.062Z,100.00
2023-01-31T22:24:59.065Z,100.00
2023-01-31T22:27:25.967Z,100.00
2023-01-31T22:29:54.177Z,100.00
2023-01-31T22:32:23.782Z,100.00
2023-01-31T22:34:55.896Z,100.00
2023-01-31T22:37:28.356Z,100.00
2023-01-31T22:39:55.402Z,100.00
2023-01-31T22:42:23.955Z,100.00
2023-01-31T22:44:56.271Z,100.00
2023-01-31T22:47:23.860Z,100.00
2023-01-31T22:49:50.871Z,100.00
2023-01-31T22:52:18.092Z,100.00
2023-01-31T22:54:45.081Z,100.00
2023-01-31T22:57:12.179Z,100.00
2023-01-31T22:59:39.070Z,100.00
2023-01-31T23:02:06.154Z,100.00
2023-01-31T23:04:33.069Z,100.00
2023-01-31T23:07:05.596Z,100.00
2023-01-31T23:09:32.616Z,100.00
2023-01-31T23:12:00.099Z,100.00
2023-01-31T23:14:27.616Z,100.00
2023-01-31T23:17:13.083Z,100.00
2023-01-31T23:19:40.014Z,100.00
2023-01-31T23:22:06.953Z,100.00
2023-01-31T23:24:34.873Z,100.00
2023-01-31T23:27:01.924Z,100.00
2023-01-31T23:29:29.442Z,100.00
2023-01-31T23:31:56.600Z,100.00
2023-01-31T23:34:23.917Z,100.00
2023-01-31T23:36:53.212Z,100.00
2023-01-31T23:39:25.292Z,100.00
2023-01-31T23:41:52.235Z,100.00
2023-01-31T23:44:19.179Z,100.00
2023-01-31T23:46:46.216Z,100.00
2023-01-31T23:49:13.354Z,100.00
2023-01-31T23:51:40.993Z,100.00
2023-01-31T23:54:13.163Z,100.00
2023-01-31T23:56:40.189Z,100.00
2023-01-31T23:59:07.163Z,100.00
